sensor_id;sensor_type;location;lat;lon;timestamp;pressure;altitude;pressure_sealevel;temperature;humidity
31011;BME280;26395;53.412;19.598;2023-04-01T00:00:08;98398.05;;;13.52;94.51
31011;BME280;26395;53.412;19.598;2023-04-01T00:15:35;98402.55;;;13.41;95.63
31011;BME280;26395;53.412;19.598;2023-04-01T00:30:38;98395.44;;;13.41;95.60
31011;BME280;26395;53.412;19.598;2023-04-01T00:45:43;98387.67;;;13.49;94.52
31011;BME280;26395;53.412;19.598;2023-04-01T01:00:48;98379.05;;;13.64;93.93
31011;BME280;26395;53.412;19.598;2023-04-01T01:16:00;98367.25;;;13.61;93.42
31011;BME280;26395;53.412;19.598;2023-04-01T01:46:24;98363.60;;;13.65;93.26
31011;BME280;26395;53.412;19.598;2023-04-01T02:01:31;98360.73;;;13.67;93.24
31011;BME280;26395;53.412;19.598;2023-04-01T02:16:58;98357.94;;;13.62;93.16
31011;BME280;26395;53.412;19.598;2023-04-01T02:32:05;98364.14;;;13.55;93.44
31011;BME280;26395;53.412;19.598;2023-04-01T02:47:09;98358.77;;;13.54;93.54
31011;BME280;26395;53.412;19.598;2023-04-01T03:02:13;98365.30;;;13.59;93.11
31011;BME280;26395;53.412;19.598;2023-04-01T03:17:17;98373.30;;;13.57;93.21
31011;BME280;26395;53.412;19.598;2023-04-01T03:32:20;98376.20;;;13.58;93.20
31011;BME280;26395;53.412;19.598;2023-04-01T03:47:24;98381.15;;;13.51;93.13
31011;BME280;26395;53.412;19.598;2023-04-01T04:02:27;98385.59;;;13.45;93.23
31011;BME280;26395;53.412;19.598;2023-04-01T04:17:30;98395.77;;;13.35;92.93
31011;BME280;26395;53.412;19.598;2023-04-01T04:32:34;98401.21;;;13.30;93.12
31011;BME280;26395;53.412;19.598;2023-04-01T04:47:38;98413.18;;;13.23;93.11
31011;BME280;26395;53.412;19.598;2023-04-01T05:02:41;98420.10;;;13.08;92.78
31011;BME280;26395;53.412;19.598;2023-04-01T05:17:44;98430.15;;;12.91;92.81
31011;BME280;26395;53.412;19.598;2023-04-01T05:32:49;98440.56;;;12.84;93.51
31011;BME280;26395;53.412;19.598;2023-04-01T05:47:53;98450.85;;;12.85;93.38
31011;BME280;26395;53.412;19.598;2023-04-01T06:03:01;98457.64;;;12.78;93.58
31011;BME280;26395;53.412;19.598;2023-04-01T06:18:16;98473.23;;;12.58;94.87
31011;BME280;26395;53.412;19.598;2023-04-01T06:49:16;98503.38;;;12.56;94.01
31011;BME280;26395;53.412;19.598;2023-04-01T07:04:48;98510.14;;;12.52;93.83
31011;BME280;26395;53.412;19.598;2023-04-01T07:20:31;98527.86;;;12.70;93.48
31011;BME280;26395;53.412;19.598;2023-04-01T07:36:09;98539.11;;;12.80;93.59
31011;BME280;26395;53.412;19.598;2023-04-01T07:51:32;98553.55;;;12.97;93.50
31011;BME280;26395;53.412;19.598;2023-04-01T08:06:47;98571.09;;;13.04;92.88
31011;BME280;26395;53.412;19.598;2023-04-01T08:21:58;98583.96;;;13.47;92.35
31011;BME280;26395;53.412;19.598;2023-04-01T08:37:17;98593.91;;;13.82;91.38
31011;BME280;26395;53.412;19.598;2023-04-01T09:07:59;98620.39;;;13.55;89.69
31011;BME280;26395;53.412;19.598;2023-04-01T09:23:44;98634.30;;;13.50;88.82
31011;BME280;26395;53.412;19.598;2023-04-01T09:39:03;98656.00;;;13.31;88.50
31011;BME280;26395;53.412;19.598;2023-04-01T09:54:55;98675.63;;;13.28;87.90
31011;BME280;26395;53.412;19.598;2023-04-01T10:10:18;98685.25;;;13.24;87.33
31011;BME280;26395;53.412;19.598;2023-04-01T10:56:59;98732.69;;;13.40;86.57
31011;BME280;26395;53.412;19.598;2023-04-01T11:12:52;98748.21;;;12.99;86.12
31011;BME280;26395;53.412;19.598;2023-04-01T11:43:57;98773.69;;;12.59;86.03
31011;BME280;26395;53.412;19.598;2023-04-01T12:46:13;98836.78;;;12.60;85.84
31011;BME280;26395;53.412;19.598;2023-04-01T13:01:59;98859.58;;;12.48;85.58
31011;BME280;26395;53.412;19.598;2023-04-01T13:33:01;98895.84;;;12.01;85.60
31011;BME280;26395;53.412;19.598;2023-04-01T14:03:30;98923.18;;;11.67;85.66
31011;BME280;26395;53.412;19.598;2023-04-01T14:34:21;98954.95;;;11.05;86.77
31011;BME280;26395;53.412;19.598;2023-04-01T14:49:37;98972.59;;;10.98;86.94
31011;BME280;26395;53.412;19.598;2023-04-01T15:20:22;99016.55;;;10.42;86.86
31011;BME280;26395;53.412;19.598;2023-04-01T15:51:02;99068.38;;;10.11;87.93
31011;BME280;26395;53.412;19.598;2023-04-01T16:21:49;99114.75;;;9.81;87.98
31011;BME280;26395;53.412;19.598;2023-04-01T16:37:01;99134.56;;;9.67;87.90
31011;BME280;26395;53.412;19.598;2023-04-01T17:07:54;99176.32;;;9.46;88.76
31011;BME280;26395;53.412;19.598;2023-04-01T17:23:33;99194.80;;;9.25;88.50
31011;BME280;26395;53.412;19.598;2023-04-01T17:38:54;99219.92;;;9.29;88.40
31011;BME280;26395;53.412;19.598;2023-04-01T17:54:19;99239.71;;;9.21;88.62
31011;BME280;26395;53.412;19.598;2023-04-01T18:09:37;99263.38;;;9.30;88.26
31011;BME280;26395;53.412;19.598;2023-04-01T18:24:56;99287.45;;;9.20;88.14
31011;BME280;26395;53.412;19.598;2023-04-01T18:55:35;99319.38;;;9.10;87.72
31011;BME280;26395;53.412;19.598;2023-04-01T19:10:56;99337.70;;;9.05;87.12
31011;BME280;26395;53.412;19.598;2023-04-01T19:26:11;99352.14;;;8.93;87.00
31011;BME280;26395;53.412;19.598;2023-04-01T19:56:22;99393.20;;;8.75;86.29
31011;BME280;26395;53.412;19.598;2023-04-01T20:26:41;99430.53;;;8.51;85.81
31011;BME280;26395;53.412;19.598;2023-04-01T20:57:06;99469.13;;;8.40;85.38
31011;BME280;26395;53.412;19.598;2023-04-01T22:14:52;99519.96;;;8.17;84.59
31011;BME280;26395;53.412;19.598;2023-04-01T22:30:14;99534.33;;;8.40;83.72
31011;BME280;26395;53.412;19.598;2023-04-01T22:45:36;99555.18;;;8.38;83.41
31011;BME280;26395;53.412;19.598;2023-04-01T23:00:48;99575.41;;;8.22;83.30
31011;BME280;26395;53.412;19.598;2023-04-01T23:15:52;99578.07;;;7.88;83.35
31011;BME280;26395;53.412;19.598;2023-04-01T23:30:56;99595.67;;;7.90;83.40
31011;BME280;26395;53.412;19.598;2023-04-01T23:46:01;99608.10;;;7.97;83.36
